Nearby METAR Reports

 

KIND - Indianapolis, Indiana, USA
Distance from station: SW 6mi, 9km
Updated: Feb 25 2018 1:54pm
Partly Cloudy
Partly Cloudy
 Wind from WSW
Wind: WSW 20 mph , 31 km/h
Temperature: 46°F , 8°C
Wind Chill: 38°F , 3°C
Dew Point: 30°F , -1°C
Humidity: 53%
Barometer: 30.04 inHg , 1017.3 hPa
Clouds: Partly Cloudy
Visibility: 10 miles , 16 km
Cloud details: Few Clouds 4000 ft
Partly Cloudy 25000 ft
2018/02/25 18:54 KIND 251854Z 25017KT 10SM FEW040 SCT250 08/M01 A3004 RMK AO2 SLP173 T00831011
KEYE - Indianapolis, Indiana, USA
Distance from station: NW 5mi, 8km
Updated: Feb 25 2018 1:53pm
Clear
Clear
 Wind from WSW
Wind: WSW 8 mph , 13 km/h, Gust: 17 mph , 28 km/h
Temperature: 46°F , 8°C
Wind Chill: 42°F , 6°C
Dew Point: 30°F , -1°C
Humidity: 53%
Barometer: 30.03 inHg , 1016.9 hPa
Clouds: Clear
Visibility: 10 miles , 16 km
2018/02/25 18:53 KEYE 251853Z AUTO 25007G15KT 200V310 10SM CLR 08/M01 A3003 RMK AO2 SLP168 T00781011
 
KTYQ - Indianapolis Exc, Indiana, USA
Distance from station: N 17mi, 28km
Updated: Feb 25 2018 1:55pm
Partly Cloudy
Partly Cloudy
 Wind from WSW
Wind: WSW 16 mph , 26 km/h, Gust: 23 mph , 37 km/h
Temperature: 43°F , 6°C
Wind Chill: 35°F , 2°C
Dew Point: 32°F , 0°C
Humidity: 66%
Barometer: 30.04 inHg , 1017.3 hPa
Clouds: Partly Cloudy
Visibility: 10 miles , 16 km
Cloud details: Partly Cloudy 2900 ft
Partly Cloudy 3500 ft
2018/02/25 18:55 KTYQ 251855Z AUTO 25014G20KT 10SM SCT029 SCT035 06/00 A3004 RMK AO2 T00580002
KGEZ - Shelbyville, Indiana, USA
Distance from station: ESE 27mi, 43km
Updated: Feb 25 2018 1:53pm
Clear
Clear
 Wind from W
Wind: W 17 mph , 28 km/h
Temperature: 48°F , 9°C
Wind Chill: 42°F , 6°C
Dew Point: 34°F , 1°C
Humidity: 58%
Barometer: 30.03 inHg , 1016.9 hPa
Clouds: Clear
Visibility: 10 miles , 16 km
2018/02/25 18:53 KGEZ 251853Z AUTO 27015KT 10SM CLR 09/01 A3003 RMK AO2 SLP168 T00940011
 
KAID - Anderson Municip, Indiana, USA
Distance from station: NE 40mi, 64km
Updated: Feb 24 2018 3:45pm
NOT Current

 
Visibility: 18 miles
2018/02/24 20:45 KAID 242045Z 11010G20KTKT 10SMSM OVC011 10/08 A2995
KBAK - Columbus/Balkala, Indiana, USA
Distance from station: SSE 40mi, 64km
Updated: Feb 25 2018 1:48pm
Mostly Cloudy
Mostly Cloudy
 Wind from WSW
Wind: WSW 10 mph , 17 km/h, Gust: 17 mph , 28 km/h
Temperature: 50°F , 10°C
Wind Chill: 46°F , 8°C
Barometer: 30.06 inHg , 1017.9 hPa
Clouds: Mostly Cloudy
Visibility: 10 miles , 16 km
Cloud details: Mostly Cloudy 20000 ft
2018/02/25 18:48 KBAK 251848Z 25009G15KT 10SM BKN200 10/ A3006
 
KBMG - Bloomington, Indiana, USA
Distance from station: SSW 48mi, 78km
Updated: Feb 25 2018 1:53pm
Clear
Clear
 Wind from WSW
Wind: WSW 14 mph , 22 km/h, Gust: 22 mph , 35 km/h
Temperature: 48°F , 9°C
Wind Chill: 42°F , 6°C
Dew Point: 30°F , -1°C
Humidity: 50%
Barometer: 30.05 inHg , 1017.6 hPa
Clouds: Clear
Visibility: 10 miles , 16 km
2018/02/25 18:53 KBMG 251853Z 24012G19KT 10SM CLR 09/M01 A3005 RMK AO2 SLP173 T00891011
KOKK - Kokomo, Indiana, USA
Distance from station: N 53mi, 85km
Updated: Feb 25 2018 1:56pm
Mostly Cloudy
Mostly Cloudy
 Wind from WSW
Wind: WSW 24 mph , 39 km/h, Gust: 29 mph , 46 km/h
Temperature: 43°F , 6°C
Wind Chill: 34°F , 1°C
Dew Point: 32°F , 0°C
Humidity: 66%
Barometer: 30.02 inHg , 1016.6 hPa
Clouds: Mostly Cloudy
Visibility: 10 miles , 16 km
Cloud details: Mostly Cloudy 3100 ft
2018/02/25 18:56 KOKK 251856Z AUTO 25021G25KT 10SM BKN031 06/00 A3002 RMK AO2 PK WND 25029/1801 SLP170 T00560000